Airfield :
LOGIN :

Register | Disclaimer

   EN    FR    IT 

 










Legend :    VFR   Marginal VFR   IFR   Intensive IFR   Very Intensive IFR
Visi :
Ceiling :
>= 8 km
>= 3000ft
5 to 8 km
1000 to 3000 ft
1500m to 5 km
500 to 1000 ft
800 to 1500m
200 to 500 ft
< 800m
< 200 ft
Symbols :   Thunderstorms  Fog  Heavy snow  Heavy precipitations  Wind > 20 kt
SIGMETs :     Misc.  Thunderstorms  Icing  Turbulence  Mountain Waves  Volcanic Ashes






- Airport Elevation : 23 ft
- IATA code : XFW


EDHI - Hamburg Finkenwerder

CURRENT METAR :
  • 192350Z AUTO 22003KT 170V260 5000 // OVC006/// 04/04 Q1019

EXPIRED METARs :
  • 192320Z AUTO 17003KT 130V210 5000 // OVC005/// 04/04 Q1019
  • 192250Z AUTO 20005KT 160V240 5000 // OVC005/// 04/04 Q1019
  • 192220Z AUTO 22003KT 190V260 5000 // OVC004/// 04/04 Q1019
  • 192150Z AUTO 20005KT 170V240 5000 // BKN005/// 04/04 Q1018
  • 192120Z AUTO 23004KT 5000 // OVC005/// 05/04 Q1018
  • 192050Z AUTO 22007KT 190V250 5000 // OVC004/// 05/04 Q1018

Expired Forecast.



MET'MAP, your aeronautical weather chart ! - Copyright ORBIFLY December 2007 - Disclaimer

ORBIFLY MET'MAP TEAM :

Programming & Development : Alexandra Zaïnal
Concept & Development : Baudouin d'Aumeries
Co-Development & Prog : Marc-Olivier Méhu
Technical & hardware support : Manuel Goepfert

Contact : metmap@orbifly.com




SOURCES & CREDITS :

   NOAA